sensor_id;sensor_type;location;lat;lon;timestamp;P1;durP1;ratioP1;P2;durP2;ratioP2
62927;SDS011;51070;52.236;-0.892;2023-04-15T00:00:10;6.10;;;4.20;;
62927;SDS011;51070;52.236;-0.892;2023-04-15T00:02:36;3.80;;;3.10;;
62927;SDS011;51070;52.236;-0.892;2023-04-15T00:05:01;4.40;;;3.80;;
62927;SDS011;51070;52.236;-0.892;2023-04-15T00:07:27;5.00;;;3.30;;
62927;SDS011;51070;52.236;-0.892;2023-04-15T00:09:53;4.50;;;3.50;;
62927;SDS011;51070;52.236;-0.892;2023-04-15T00:12:22;5.20;;;4.40;;
62927;SDS011;51070;52.236;-0.892;2023-04-15T00:14:48;4.30;;;3.30;;
62927;SDS011;51070;52.236;-0.892;2023-04-15T00:17:15;4.30;;;3.70;;
62927;SDS011;51070;52.236;-0.892;2023-04-15T00:19:41;5.50;;;4.10;;
62927;SDS011;51070;52.236;-0.892;2023-04-15T00:22:06;4.50;;;3.60;;
62927;SDS011;51070;52.236;-0.892;2023-04-15T00:24:32;4.60;;;3.90;;
62927;SDS011;51070;52.236;-0.892;2023-04-15T00:26:58;5.20;;;4.00;;
62927;SDS011;51070;52.236;-0.892;2023-04-15T00:29:24;4.20;;;3.40;;
62927;SDS011;51070;52.236;-0.892;2023-04-15T00:31:50;3.80;;;3.30;;
62927;SDS011;51070;52.236;-0.892;2023-04-15T00:34:16;4.30;;;3.30;;
62927;SDS011;51070;52.236;-0.892;2023-04-15T00:36:41;3.00;;;2.50;;
62927;SDS011;51070;52.236;-0.892;2023-04-15T00:39:07;5.30;;;4.00;;
62927;SDS011;51070;52.236;-0.892;2023-04-15T00:41:32;4.20;;;3.60;;
62927;SDS011;51070;52.236;-0.892;2023-04-15T00:43:58;3.80;;;3.00;;
62927;SDS011;51070;52.236;-0.892;2023-04-15T00:46:25;3.10;;;2.50;;
62927;SDS011;51070;52.236;-0.892;2023-04-15T00:48:53;3.40;;;2.70;;
62927;SDS011;51070;52.236;-0.892;2023-04-15T00:51:19;3.90;;;3.50;;
62927;SDS011;51070;52.236;-0.892;2023-04-15T00:53:44;4.30;;;3.10;;
62927;SDS011;51070;52.236;-0.892;2023-04-15T00:56:09;5.20;;;2.90;;
62927;SDS011;51070;52.236;-0.892;2023-04-15T00:58:35;4.00;;;2.70;;
62927;SDS011;51070;52.236;-0.892;2023-04-15T01:01:01;3.80;;;2.90;;
62927;SDS011;51070;52.236;-0.892;2023-04-15T01:03:28;3.90;;;2.80;;
62927;SDS011;51070;52.236;-0.892;2023-04-15T01:05:54;4.10;;;2.90;;
62927;SDS011;51070;52.236;-0.892;2023-04-15T01:08:28;4.50;;;3.30;;
62927;SDS011;51070;52.236;-0.892;2023-04-15T01:10:55;4.10;;;3.30;;
62927;SDS011;51070;52.236;-0.892;2023-04-15T01:13:22;4.30;;;3.60;;
62927;SDS011;51070;52.236;-0.892;2023-04-15T01:15:49;3.60;;;3.20;;
62927;SDS011;51070;52.236;-0.892;2023-04-15T01:18:16;4.00;;;3.30;;
62927;SDS011;51070;52.236;-0.892;2023-04-15T01:20:42;3.50;;;2.80;;
62927;SDS011;51070;52.236;-0.892;2023-04-15T01:23:07;4.30;;;3.40;;
62927;SDS011;51070;52.236;-0.892;2023-04-15T01:25:33;4.30;;;3.50;;
62927;SDS011;51070;52.236;-0.892;2023-04-15T01:27:59;5.20;;;3.90;;
62927;SDS011;51070;52.236;-0.892;2023-04-15T01:30:25;4.80;;;3.40;;
62927;SDS011;51070;52.236;-0.892;2023-04-15T01:32:51;4.80;;;3.40;;
62927;SDS011;51070;52.236;-0.892;2023-04-15T01:35:17;4.10;;;3.50;;
62927;SDS011;51070;52.236;-0.892;2023-04-15T01:37:43;4.70;;;3.30;;
62927;SDS011;51070;52.236;-0.892;2023-04-15T01:40:09;3.90;;;2.90;;
62927;SDS011;51070;52.236;-0.892;2023-04-15T01:42:35;5.70;;;3.80;;
62927;SDS011;51070;52.236;-0.892;2023-04-15T01:45:01;4.50;;;3.70;;
62927;SDS011;51070;52.236;-0.892;2023-04-15T01:47:27;6.40;;;4.70;;
62927;SDS011;51070;52.236;-0.892;2023-04-15T01:49:53;6.60;;;4.80;;
62927;SDS011;51070;52.236;-0.892;2023-04-15T01:52:18;6.20;;;4.80;;
62927;SDS011;51070;52.236;-0.892;2023-04-15T01:54:44;6.60;;;4.50;;
62927;SDS011;51070;52.236;-0.892;2023-04-15T01:57:10;6.80;;;5.30;;
62927;SDS011;51070;52.236;-0.892;2023-04-15T01:59:36;6.60;;;4.80;;
62927;SDS011;51070;52.236;-0.892;2023-04-15T02:02:01;5.70;;;4.80;;
62927;SDS011;51070;52.236;-0.892;2023-04-15T02:04:26;7.00;;;5.20;;
62927;SDS011;51070;52.236;-0.892;2023-04-15T02:06:52;6.00;;;4.70;;
62927;SDS011;51070;52.236;-0.892;2023-04-15T02:09:18;6.30;;;4.60;;
62927;SDS011;51070;52.236;-0.892;2023-04-15T02:11:43;6.50;;;4.60;;
62927;SDS011;51070;52.236;-0.892;2023-04-15T02:14:09;5.80;;;4.70;;
62927;SDS011;51070;52.236;-0.892;2023-04-15T02:16:35;6.20;;;5.20;;
62927;SDS011;51070;52.236;-0.892;2023-04-15T02:19:00;6.30;;;5.00;;
62927;SDS011;51070;52.236;-0.892;2023-04-15T02:21:26;7.00;;;5.00;;
62927;SDS011;51070;52.236;-0.892;2023-04-15T02:23:51;8.50;;;4.80;;
62927;SDS011;51070;52.236;-0.892;2023-04-15T02:26:18;8.00;;;5.90;;
62927;SDS011;51070;52.236;-0.892;2023-04-15T02:28:44;8.10;;;6.30;;
62927;SDS011;51070;52.236;-0.892;2023-04-15T02:31:10;6.70;;;5.50;;
62927;SDS011;51070;52.236;-0.892;2023-04-15T02:33:36;8.60;;;6.50;;
62927;SDS011;51070;52.236;-0.892;2023-04-15T02:36:02;8.90;;;6.60;;
62927;SDS011;51070;52.236;-0.892;2023-04-15T02:38:27;9.40;;;5.90;;
62927;SDS011;51070;52.236;-0.892;2023-04-15T02:40:53;9.40;;;6.80;;
62927;SDS011;51070;52.236;-0.892;2023-04-15T02:43:18;10.50;;;8.00;;
62927;SDS011;51070;52.236;-0.892;2023-04-15T02:45:44;12.70;;;8.80;;
62927;SDS011;51070;52.236;-0.892;2023-04-15T02:48:11;11.40;;;9.20;;
62927;SDS011;51070;52.236;-0.892;2023-04-15T02:50:37;10.90;;;8.70;;
62927;SDS011;51070;52.236;-0.892;2023-04-15T02:55:31;11.70;;;9.20;;
62927;SDS011;51070;52.236;-0.892;2023-04-15T02:57:56;11.50;;;8.90;;
62927;SDS011;51070;52.236;-0.892;2023-04-15T03:02:56;9.00;;;7.10;;
62927;SDS011;51070;52.236;-0.892;2023-04-15T03:05:22;11.90;;;8.50;;
62927;SDS011;51070;52.236;-0.892;2023-04-15T03:07:51;9.20;;;7.40;;
62927;SDS011;51070;52.236;-0.892;2023-04-15T03:10:17;9.20;;;7.20;;
62927;SDS011;51070;52.236;-0.892;2023-04-15T03:12:42;8.30;;;7.00;;
62927;SDS011;51070;52.236;-0.892;2023-04-15T03:15:08;9.90;;;7.60;;
62927;SDS011;51070;52.236;-0.892;2023-04-15T03:17:34;9.50;;;7.30;;
62927;SDS011;51070;52.236;-0.892;2023-04-15T03:20:00;7.00;;;6.20;;
62927;SDS011;51070;52.236;-0.892;2023-04-15T03:22:28;9.90;;;7.40;;
62927;SDS011;51070;52.236;-0.892;2023-04-15T03:24:53;8.50;;;6.80;;
62927;SDS011;51070;52.236;-0.892;2023-04-15T03:27:19;12.20;;;7.40;;
62927;SDS011;51070;52.236;-0.892;2023-04-15T03:29:44;9.70;;;7.60;;
62927;SDS011;51070;52.236;-0.892;2023-04-15T03:32:10;10.60;;;8.10;;
62927;SDS011;51070;52.236;-0.892;2023-04-15T03:34:36;10.70;;;7.80;;
62927;SDS011;51070;52.236;-0.892;2023-04-15T03:37:01;11.40;;;8.60;;
62927;SDS011;51070;52.236;-0.892;2023-04-15T03:39:26;11.20;;;9.20;;
62927;SDS011;51070;52.236;-0.892;2023-04-15T03:41:52;11.80;;;8.80;;
62927;SDS011;51070;52.236;-0.892;2023-04-15T03:44:17;13.30;;;9.20;;
62927;SDS011;51070;52.236;-0.892;2023-04-15T03:46:43;12.10;;;8.50;;
62927;SDS011;51070;52.236;-0.892;2023-04-15T03:49:09;12.20;;;8.80;;
62927;SDS011;51070;52.236;-0.892;2023-04-15T03:51:35;13.30;;;9.20;;
62927;SDS011;51070;52.236;-0.892;2023-04-15T03:54:01;13.60;;;8.80;;
62927;SDS011;51070;52.236;-0.892;2023-04-15T03:56:26;11.30;;;8.50;;
62927;SDS011;51070;52.236;-0.892;2023-04-15T03:58:51;12.30;;;9.40;;
62927;SDS011;51070;52.236;-0.892;2023-04-15T04:01:17;12.00;;;8.70;;
62927;SDS011;51070;52.236;-0.892;2023-04-15T04:03:43;13.00;;;9.70;;
62927;SDS011;51070;52.236;-0.892;2023-04-15T04:06:08;14.30;;;8.60;;
62927;SDS011;51070;52.236;-0.892;2023-04-15T04:08:36;11.70;;;8.10;;
62927;SDS011;51070;52.236;-0.892;2023-04-15T04:11:01;12.40;;;8.90;;
62927;SDS011;51070;52.236;-0.892;2023-04-15T04:13:27;11.40;;;8.10;;
62927;SDS011;51070;52.236;-0.892;2023-04-15T04:15:53;11.40;;;7.80;;
62927;SDS011;51070;52.236;-0.892;2023-04-15T04:18:18;8.60;;;6.30;;
62927;SDS011;51070;52.236;-0.892;2023-04-15T04:20:43;10.40;;;7.40;;
62927;SDS011;51070;52.236;-0.892;2023-04-15T04:23:09;10.40;;;7.40;;
62927;SDS011;51070;52.236;-0.892;2023-04-15T04:25:35;8.20;;;6.20;;
62927;SDS011;51070;52.236;-0.892;2023-04-15T04:28:00;8.90;;;6.80;;
62927;SDS011;51070;52.236;-0.892;2023-04-15T04:30:26;8.30;;;6.50;;
62927;SDS011;51070;52.236;-0.892;2023-04-15T04:32:51;11.40;;;6.90;;
62927;SDS011;51070;52.236;-0.892;2023-04-15T04:35:16;8.80;;;6.80;;
62927;SDS011;51070;52.236;-0.892;2023-04-15T04:37:42;8.00;;;5.70;;
62927;SDS011;51070;52.236;-0.892;2023-04-15T04:40:07;6.90;;;5.90;;
62927;SDS011;51070;52.236;-0.892;2023-04-15T04:42:33;8.40;;;5.30;;
62927;SDS011;51070;52.236;-0.892;2023-04-15T04:44:59;7.40;;;5.10;;
62927;SDS011;51070;52.236;-0.892;2023-04-15T04:47:25;5.70;;;4.50;;
62927;SDS011;51070;52.236;-0.892;2023-04-15T04:49:50;5.40;;;4.00;;
62927;SDS011;51070;52.236;-0.892;2023-04-15T04:52:16;5.60;;;4.40;;
62927;SDS011;51070;52.236;-0.892;2023-04-15T04:54:41;5.60;;;4.30;;
62927;SDS011;51070;52.236;-0.892;2023-04-15T04:57:06;6.10;;;5.00;;
62927;SDS011;51070;52.236;-0.892;2023-04-15T04:59:32;7.10;;;4.60;;
62927;SDS011;51070;52.236;-0.892;2023-04-15T05:01:57;5.20;;;4.30;;
62927;SDS011;51070;52.236;-0.892;2023-04-15T05:04:23;5.50;;;4.10;;
62927;SDS011;51070;52.236;-0.892;2023-04-15T05:06:48;5.70;;;3.90;;
62927;SDS011;51070;52.236;-0.892;2023-04-15T05:09:13;4.40;;;3.70;;
62927;SDS011;51070;52.236;-0.892;2023-04-15T05:11:39;5.70;;;4.20;;
62927;SDS011;51070;52.236;-0.892;2023-04-15T05:14:05;6.20;;;4.70;;
62927;SDS011;51070;52.236;-0.892;2023-04-15T05:16:30;5.50;;;4.20;;
62927;SDS011;51070;52.236;-0.892;2023-04-15T05:18:56;5.90;;;4.30;;
62927;SDS011;51070;52.236;-0.892;2023-04-15T05:21:21;5.80;;;4.30;;
62927;SDS011;51070;52.236;-0.892;2023-04-15T05:23:47;6.80;;;4.30;;
62927;SDS011;51070;52.236;-0.892;2023-04-15T05:26:13;5.30;;;4.00;;
62927;SDS011;51070;52.236;-0.892;2023-04-15T05:28:38;5.30;;;4.10;;
62927;SDS011;51070;52.236;-0.892;2023-04-15T05:31:03;6.20;;;4.40;;
62927;SDS011;51070;52.236;-0.892;2023-04-15T05:33:30;6.00;;;4.10;;
62927;SDS011;51070;52.236;-0.892;2023-04-15T05:35:55;6.40;;;5.10;;
62927;SDS011;51070;52.236;-0.892;2023-04-15T05:38:20;7.90;;;4.70;;
62927;SDS011;51070;52.236;-0.892;2023-04-15T05:40:46;6.70;;;4.70;;
62927;SDS011;51070;52.236;-0.892;2023-04-15T05:43:11;6.20;;;4.60;;
62927;SDS011;51070;52.236;-0.892;2023-04-15T05:45:37;8.80;;;4.60;;
62927;SDS011;51070;52.236;-0.892;2023-04-15T05:48:02;6.10;;;4.10;;
62927;SDS011;51070;52.236;-0.892;2023-04-15T05:50:28;6.40;;;4.90;;
62927;SDS011;51070;52.236;-0.892;2023-04-15T05:52:53;5.60;;;4.50;;
62927;SDS011;51070;52.236;-0.892;2023-04-15T05:55:20;4.80;;;4.10;;
62927;SDS011;51070;52.236;-0.892;2023-04-15T05:57:46;5.80;;;4.20;;
62927;SDS011;51070;52.236;-0.892;2023-04-15T06:00:12;6.10;;;4.30;;
62927;SDS011;51070;52.236;-0.892;2023-04-15T06:02:38;5.50;;;4.30;;
62927;SDS011;51070;52.236;-0.892;2023-04-15T06:05:04;9.50;;;5.00;;
62927;SDS011;51070;52.236;-0.892;2023-04-15T06:07:34;6.50;;;4.50;;
62927;SDS011;51070;52.236;-0.892;2023-04-15T06:10:01;6.50;;;4.70;;
62927;SDS011;51070;52.236;-0.892;2023-04-15T06:12:28;7.20;;;4.60;;
62927;SDS011;51070;52.236;-0.892;2023-04-15T06:14:53;8.30;;;5.30;;
62927;SDS011;51070;52.236;-0.892;2023-04-15T06:17:19;6.30;;;4.90;;
62927;SDS011;51070;52.236;-0.892;2023-04-15T06:19:44;7.30;;;4.30;;
62927;SDS011;51070;52.236;-0.892;2023-04-15T06:22:09;5.40;;;3.90;;
62927;SDS011;51070;52.236;-0.892;2023-04-15T06:24:35;8.00;;;5.20;;
62927;SDS011;51070;52.236;-0.892;2023-04-15T06:27:01;6.00;;;4.20;;
62927;SDS011;51070;52.236;-0.892;2023-04-15T06:29:27;6.50;;;4.70;;
62927;SDS011;51070;52.236;-0.892;2023-04-15T06:31:53;6.40;;;4.80;;
62927;SDS011;51070;52.236;-0.892;2023-04-15T06:34:20;8.40;;;5.70;;
62927;SDS011;51070;52.236;-0.892;2023-04-15T06:36:46;7.60;;;5.00;;
62927;SDS011;51070;52.236;-0.892;2023-04-15T06:39:12;8.60;;;6.10;;
62927;SDS011;51070;52.236;-0.892;2023-04-15T06:41:37;7.80;;;5.40;;
62927;SDS011;51070;52.236;-0.892;2023-04-15T06:44:03;7.80;;;5.40;;
62927;SDS011;51070;52.236;-0.892;2023-04-15T06:46:29;7.20;;;5.30;;
62927;SDS011;51070;52.236;-0.892;2023-04-15T06:48:54;7.00;;;5.40;;
62927;SDS011;51070;52.236;-0.892;2023-04-15T06:51:20;6.80;;;5.50;;
62927;SDS011;51070;52.236;-0.892;2023-04-15T06:53:47;7.00;;;4.90;;
62927;SDS011;51070;52.236;-0.892;2023-04-15T06:56:13;7.00;;;5.30;;
62927;SDS011;51070;52.236;-0.892;2023-04-15T06:58:39;7.30;;;5.60;;
62927;SDS011;51070;52.236;-0.892;2023-04-15T07:01:04;7.00;;;5.50;;
62927;SDS011;51070;52.236;-0.892;2023-04-15T07:03:30;6.60;;;4.90;;
62927;SDS011;51070;52.236;-0.892;2023-04-15T07:05:56;8.10;;;6.10;;
62927;SDS011;51070;52.236;-0.892;2023-04-15T07:08:22;8.00;;;6.10;;
62927;SDS011;51070;52.236;-0.892;2023-04-15T07:10:48;8.50;;;5.10;;
62927;SDS011;51070;52.236;-0.892;2023-04-15T07:13:13;8.80;;;5.20;;
62927;SDS011;51070;52.236;-0.892;2023-04-15T07:15:39;7.90;;;5.10;;
62927;SDS011;51070;52.236;-0.892;2023-04-15T07:18:05;6.80;;;4.90;;
62927;SDS011;51070;52.236;-0.892;2023-04-15T07:20:30;9.90;;;5.30;;
62927;SDS011;51070;52.236;-0.892;2023-04-15T07:22:56;7.30;;;5.10;;
62927;SDS011;51070;52.236;-0.892;2023-04-15T07:25:21;5.80;;;4.90;;
62927;SDS011;51070;52.236;-0.892;2023-04-15T07:27:47;7.30;;;5.00;;
62927;SDS011;51070;52.236;-0.892;2023-04-15T07:30:12;7.10;;;5.60;;
62927;SDS011;51070;52.236;-0.892;2023-04-15T07:32:38;7.10;;;5.10;;
62927;SDS011;51070;52.236;-0.892;2023-04-15T07:35:04;6.80;;;4.90;;
62927;SDS011;51070;52.236;-0.892;2023-04-15T07:37:30;7.20;;;5.10;;
62927;SDS011;51070;52.236;-0.892;2023-04-15T07:39:55;8.50;;;5.20;;
62927;SDS011;51070;52.236;-0.892;2023-04-15T07:42:21;7.10;;;5.50;;
62927;SDS011;51070;52.236;-0.892;2023-04-15T07:44:47;5.70;;;4.10;;
62927;SDS011;51070;52.236;-0.892;2023-04-15T07:47:12;7.50;;;5.10;;
62927;SDS011;51070;52.236;-0.892;2023-04-15T07:49:37;6.50;;;4.90;;
62927;SDS011;51070;52.236;-0.892;2023-04-15T07:52:03;7.30;;;5.30;;
62927;SDS011;51070;52.236;-0.892;2023-04-15T07:54:28;6.00;;;4.80;;
62927;SDS011;51070;52.236;-0.892;2023-04-15T07:56:54;6.50;;;5.10;;
62927;SDS011;51070;52.236;-0.892;2023-04-15T07:59:20;7.00;;;5.10;;
62927;SDS011;51070;52.236;-0.892;2023-04-15T08:01:46;6.30;;;5.30;;
62927;SDS011;51070;52.236;-0.892;2023-04-15T08:04:13;7.90;;;5.70;;
62927;SDS011;51070;52.236;-0.892;2023-04-15T08:06:38;6.20;;;5.30;;
62927;SDS011;51070;52.236;-0.892;2023-04-15T08:09:04;7.00;;;5.30;;
62927;SDS011;51070;52.236;-0.892;2023-04-15T08:11:31;8.60;;;5.80;;
62927;SDS011;51070;52.236;-0.892;2023-04-15T08:13:57;8.00;;;6.00;;
62927;SDS011;51070;52.236;-0.892;2023-04-15T08:16:23;7.50;;;5.40;;
62927;SDS011;51070;52.236;-0.892;2023-04-15T08:18:50;8.80;;;6.30;;
62927;SDS011;51070;52.236;-0.892;2023-04-15T08:21:17;7.80;;;5.50;;
62927;SDS011;51070;52.236;-0.892;2023-04-15T08:23:44;8.20;;;6.80;;
62927;SDS011;51070;52.236;-0.892;2023-04-15T08:26:11;7.60;;;6.40;;
62927;SDS011;51070;52.236;-0.892;2023-04-15T08:28:37;11.70;;;6.80;;
62927;SDS011;51070;52.236;-0.892;2023-04-15T08:31:04;7.30;;;5.70;;
62927;SDS011;51070;52.236;-0.892;2023-04-15T08:33:30;8.70;;;6.80;;
62927;SDS011;51070;52.236;-0.892;2023-04-15T08:35:56;10.90;;;6.80;;
62927;SDS011;51070;52.236;-0.892;2023-04-15T08:38:22;10.90;;;7.00;;
62927;SDS011;51070;52.236;-0.892;2023-04-15T08:40:48;8.10;;;6.20;;
62927;SDS011;51070;52.236;-0.892;2023-04-15T08:43:21;10.90;;;7.40;;
62927;SDS011;51070;52.236;-0.892;2023-04-15T08:45:50;7.80;;;6.60;;
62927;SDS011;51070;52.236;-0.892;2023-04-15T08:48:17;7.80;;;6.10;;
62927;SDS011;51070;52.236;-0.892;2023-04-15T08:50:43;15.10;;;6.70;;
62927;SDS011;51070;52.236;-0.892;2023-04-15T08:53:10;10.90;;;7.70;;
62927;SDS011;51070;52.236;-0.892;2023-04-15T08:55:39;8.90;;;7.70;;
62927;SDS011;51070;52.236;-0.892;2023-04-15T08:58:08;10.10;;;7.70;;
62927;SDS011;51070;52.236;-0.892;2023-04-15T09:00:35;8.50;;;6.00;;
62927;SDS011;51070;52.236;-0.892;2023-04-15T09:03:01;10.20;;;6.40;;
62927;SDS011;51070;52.236;-0.892;2023-04-15T09:05:26;14.10;;;7.50;;
62927;SDS011;51070;52.236;-0.892;2023-04-15T09:07:51;9.50;;;6.80;;
62927;SDS011;51070;52.236;-0.892;2023-04-15T09:10:17;7.90;;;6.00;;
62927;SDS011;51070;52.236;-0.892;2023-04-15T09:12:42;8.30;;;5.60;;
62927;SDS011;51070;52.236;-0.892;2023-04-15T09:15:11;7.00;;;5.60;;
62927;SDS011;51070;52.236;-0.892;2023-04-15T09:17:41;8.30;;;6.10;;
62927;SDS011;51070;52.236;-0.892;2023-04-15T09:22:35;9.60;;;6.00;;
62927;SDS011;51070;52.236;-0.892;2023-04-15T09:25:02;6.50;;;4.70;;
62927;SDS011;51070;52.236;-0.892;2023-04-15T09:27:28;7.00;;;5.70;;
62927;SDS011;51070;52.236;-0.892;2023-04-15T09:29:53;9.20;;;6.30;;
62927;SDS011;51070;52.236;-0.892;2023-04-15T09:32:19;7.30;;;5.70;;
62927;SDS011;51070;52.236;-0.892;2023-04-15T09:34:47;7.40;;;6.60;;
62927;SDS011;51070;52.236;-0.892;2023-04-15T09:37:13;9.80;;;6.50;;
62927;SDS011;51070;52.236;-0.892;2023-04-15T09:39:45;7.60;;;6.00;;
62927;SDS011;51070;52.236;-0.892;2023-04-15T09:42:12;7.00;;;5.90;;
62927;SDS011;51070;52.236;-0.892;2023-04-15T09:44:38;8.70;;;6.70;;
62927;SDS011;51070;52.236;-0.892;2023-04-15T09:47:03;10.00;;;5.90;;
62927;SDS011;51070;52.236;-0.892;2023-04-15T09:49:28;8.60;;;5.70;;
62927;SDS011;51070;52.236;-0.892;2023-04-15T09:51:58;7.60;;;5.90;;
62927;SDS011;51070;52.236;-0.892;2023-04-15T09:54:31;7.00;;;5.20;;
62927;SDS011;51070;52.236;-0.892;2023-04-15T09:57:05;8.40;;;6.20;;
62927;SDS011;51070;52.236;-0.892;2023-04-15T09:59:34;6.70;;;5.10;;
62927;SDS011;51070;52.236;-0.892;2023-04-15T10:02:01;6.80;;;5.10;;
62927;SDS011;51070;52.236;-0.892;2023-04-15T10:06:54;5.70;;;4.80;;
62927;SDS011;51070;52.236;-0.892;2023-04-15T10:09:21;8.50;;;5.40;;
62927;SDS011;51070;52.236;-0.892;2023-04-15T10:11:46;8.30;;;4.80;;
62927;SDS011;51070;52.236;-0.892;2023-04-15T10:14:14;6.50;;;4.60;;
62927;SDS011;51070;52.236;-0.892;2023-04-15T10:16:40;8.30;;;5.40;;
62927;SDS011;51070;52.236;-0.892;2023-04-15T10:19:13;6.00;;;4.90;;
62927;SDS011;51070;52.236;-0.892;2023-04-15T10:21:42;5.70;;;4.40;;
62927;SDS011;51070;52.236;-0.892;2023-04-15T10:24:09;9.40;;;5.20;;
62927;SDS011;51070;52.236;-0.892;2023-04-15T10:26:35;7.50;;;5.30;;
62927;SDS011;51070;52.236;-0.892;2023-04-15T10:29:02;7.80;;;4.50;;
62927;SDS011;51070;52.236;-0.892;2023-04-15T10:31:28;6.20;;;4.60;;
62927;SDS011;51070;52.236;-0.892;2023-04-15T10:33:53;6.60;;;4.50;;
62927;SDS011;51070;52.236;-0.892;2023-04-15T10:36:20;5.40;;;4.60;;
62927;SDS011;51070;52.236;-0.892;2023-04-15T10:38:46;5.30;;;4.70;;
62927;SDS011;51070;52.236;-0.892;2023-04-15T10:41:12;5.90;;;4.40;;
62927;SDS011;51070;52.236;-0.892;2023-04-15T10:43:38;9.20;;;5.40;;
62927;SDS011;51070;52.236;-0.892;2023-04-15T10:46:04;7.20;;;5.50;;
62927;SDS011;51070;52.236;-0.892;2023-04-15T10:48:30;7.30;;;5.20;;
62927;SDS011;51070;52.236;-0.892;2023-04-15T10:50:57;6.10;;;5.20;;
62927;SDS011;51070;52.236;-0.892;2023-04-15T10:53:29;7.80;;;4.50;;
62927;SDS011;51070;52.236;-0.892;2023-04-15T10:55:58;7.40;;;4.80;;
62927;SDS011;51070;52.236;-0.892;2023-04-15T11:00:50;6.50;;;4.30;;
62927;SDS011;51070;52.236;-0.892;2023-04-15T11:03:21;4.80;;;4.30;;
62927;SDS011;51070;52.236;-0.892;2023-04-15T11:06:03;8.90;;;5.00;;
62927;SDS011;51070;52.236;-0.892;2023-04-15T11:08:52;6.00;;;4.40;;
62927;SDS011;51070;52.236;-0.892;2023-04-15T11:14:26;6.70;;;5.40;;
62927;SDS011;51070;52.236;-0.892;2023-04-15T11:16:52;7.10;;;4.30;;
62927;SDS011;51070;52.236;-0.892;2023-04-15T11:19:17;7.90;;;4.30;;
62927;SDS011;51070;52.236;-0.892;2023-04-15T11:21:43;5.30;;;3.90;;
62927;SDS011;51070;52.236;-0.892;2023-04-15T11:24:08;7.10;;;3.80;;
62927;SDS011;51070;52.236;-0.892;2023-04-15T11:26:34;7.20;;;4.60;;
62927;SDS011;51070;52.236;-0.892;2023-04-15T11:28:59;5.80;;;4.30;;
62927;SDS011;51070;52.236;-0.892;2023-04-15T11:31:26;6.50;;;4.90;;
62927;SDS011;51070;52.236;-0.892;2023-04-15T11:33:53;8.20;;;5.50;;
62927;SDS011;51070;52.236;-0.892;2023-04-15T11:36:27;9.00;;;5.60;;
62927;SDS011;51070;52.236;-0.892;2023-04-15T11:38:54;6.60;;;4.60;;
62927;SDS011;51070;52.236;-0.892;2023-04-15T11:41:22;8.60;;;5.30;;
62927;SDS011;51070;52.236;-0.892;2023-04-15T11:43:48;5.50;;;4.70;;
62927;SDS011;51070;52.236;-0.892;2023-04-15T11:46:14;5.70;;;4.90;;
62927;SDS011;51070;52.236;-0.892;2023-04-15T11:48:44;6.40;;;4.70;;
62927;SDS011;51070;52.236;-0.892;2023-04-15T11:51:10;6.70;;;4.10;;
62927;SDS011;51070;52.236;-0.892;2023-04-15T11:53:42;9.70;;;4.50;;
62927;SDS011;51070;52.236;-0.892;2023-04-15T11:56:10;6.40;;;4.70;;
62927;SDS011;51070;52.236;-0.892;2023-04-15T11:58:54;5.40;;;3.90;;
62927;SDS011;51070;52.236;-0.892;2023-04-15T12:01:29;4.70;;;4.10;;
62927;SDS011;51070;52.236;-0.892;2023-04-15T12:04:10;4.90;;;3.50;;
62927;SDS011;51070;52.236;-0.892;2023-04-15T12:06:41;4.50;;;3.70;;
62927;SDS011;51070;52.236;-0.892;2023-04-15T12:11:39;6.20;;;3.40;;
62927;SDS011;51070;52.236;-0.892;2023-04-15T12:19:25;5.30;;;4.30;;
62927;SDS011;51070;52.236;-0.892;2023-04-15T12:21:56;5.60;;;3.70;;
62927;SDS011;51070;52.236;-0.892;2023-04-15T12:24:24;6.10;;;4.50;;
62927;SDS011;51070;52.236;-0.892;2023-04-15T12:26:51;6.10;;;4.10;;
62927;SDS011;51070;52.236;-0.892;2023-04-15T12:29:18;5.70;;;4.00;;
62927;SDS011;51070;52.236;-0.892;2023-04-15T12:31:54;8.50;;;4.30;;
62927;SDS011;51070;52.236;-0.892;2023-04-15T12:34:28;6.40;;;4.20;;
62927;SDS011;51070;52.236;-0.892;2023-04-15T12:36:56;6.40;;;4.00;;
62927;SDS011;51070;52.236;-0.892;2023-04-15T12:39:23;4.60;;;3.70;;
62927;SDS011;51070;52.236;-0.892;2023-04-15T12:41:51;4.80;;;3.40;;
62927;SDS011;51070;52.236;-0.892;2023-04-15T12:44:17;4.80;;;3.80;;
62927;SDS011;51070;52.236;-0.892;2023-04-15T12:46:43;6.00;;;3.70;;
62927;SDS011;51070;52.236;-0.892;2023-04-15T12:49:10;5.30;;;3.50;;
62927;SDS011;51070;52.236;-0.892;2023-04-15T12:51:35;5.50;;;3.90;;
62927;SDS011;51070;52.236;-0.892;2023-04-15T12:54:01;5.00;;;3.50;;
62927;SDS011;51070;52.236;-0.892;2023-04-15T12:56:26;4.20;;;3.20;;
62927;SDS011;51070;52.236;-0.892;2023-04-15T12:58:52;4.70;;;3.70;;
62927;SDS011;51070;52.236;-0.892;2023-04-15T13:01:17;4.20;;;3.30;;
62927;SDS011;51070;52.236;-0.892;2023-04-15T13:03:43;5.90;;;3.50;;
62927;SDS011;51070;52.236;-0.892;2023-04-15T13:06:09;6.50;;;3.20;;
62927;SDS011;51070;52.236;-0.892;2023-04-15T13:08:34;4.50;;;3.00;;
62927;SDS011;51070;52.236;-0.892;2023-04-15T13:11:00;4.70;;;3.00;;
62927;SDS011;51070;52.236;-0.892;2023-04-15T13:13:26;5.00;;;3.20;;
62927;SDS011;51070;52.236;-0.892;2023-04-15T13:15:52;5.20;;;3.20;;
62927;SDS011;51070;52.236;-0.892;2023-04-15T13:18:17;5.60;;;3.10;;
62927;SDS011;51070;52.236;-0.892;2023-04-15T13:20:43;7.30;;;3.40;;
62927;SDS011;51070;52.236;-0.892;2023-04-15T13:23:08;4.60;;;2.60;;
62927;SDS011;51070;52.236;-0.892;2023-04-15T13:25:34;7.00;;;3.60;;
62927;SDS011;51070;52.236;-0.892;2023-04-15T13:28:00;5.90;;;3.20;;
62927;SDS011;51070;52.236;-0.892;2023-04-15T13:30:25;5.40;;;3.70;;
62927;SDS011;51070;52.236;-0.892;2023-04-15T13:32:52;4.60;;;2.90;;
62927;SDS011;51070;52.236;-0.892;2023-04-15T13:35:18;4.00;;;2.50;;
62927;SDS011;51070;52.236;-0.892;2023-04-15T13:37:44;4.10;;;3.00;;
62927;SDS011;51070;52.236;-0.892;2023-04-15T13:40:10;6.80;;;3.00;;
62927;SDS011;51070;52.236;-0.892;2023-04-15T13:42:35;4.00;;;2.90;;
62927;SDS011;51070;52.236;-0.892;2023-04-15T13:45:01;4.10;;;2.90;;
62927;SDS011;51070;52.236;-0.892;2023-04-15T13:47:27;4.70;;;3.00;;
62927;SDS011;51070;52.236;-0.892;2023-04-15T13:49:52;4.80;;;2.90;;
62927;SDS011;51070;52.236;-0.892;2023-04-15T13:52:20;3.20;;;2.40;;
62927;SDS011;51070;52.236;-0.892;2023-04-15T13:54:46;3.80;;;2.60;;
62927;SDS011;51070;52.236;-0.892;2023-04-15T13:57:12;4.10;;;2.50;;
62927;SDS011;51070;52.236;-0.892;2023-04-15T13:59:37;5.70;;;3.20;;
62927;SDS011;51070;52.236;-0.892;2023-04-15T14:02:03;3.10;;;2.60;;
62927;SDS011;51070;52.236;-0.892;2023-04-15T14:04:29;3.70;;;3.00;;
62927;SDS011;51070;52.236;-0.892;2023-04-15T14:06:55;4.70;;;3.10;;
62927;SDS011;51070;52.236;-0.892;2023-04-15T14:09:21;6.60;;;3.90;;
62927;SDS011;51070;52.236;-0.892;2023-04-15T14:11:50;5.90;;;4.00;;
62927;SDS011;51070;52.236;-0.892;2023-04-15T14:14:16;5.50;;;3.40;;
62927;SDS011;51070;52.236;-0.892;2023-04-15T14:16:41;5.80;;;3.00;;
62927;SDS011;51070;52.236;-0.892;2023-04-15T14:19:07;5.20;;;3.10;;
62927;SDS011;51070;52.236;-0.892;2023-04-15T14:21:32;3.40;;;2.80;;
62927;SDS011;51070;52.236;-0.892;2023-04-15T14:23:57;3.90;;;2.90;;
62927;SDS011;51070;52.236;-0.892;2023-04-15T14:26:23;4.00;;;2.90;;
62927;SDS011;51070;52.236;-0.892;2023-04-15T14:28:48;4.20;;;2.90;;
62927;SDS011;51070;52.236;-0.892;2023-04-15T14:31:14;8.30;;;2.80;;
62927;SDS011;51070;52.236;-0.892;2023-04-15T14:33:40;4.90;;;3.10;;
62927;SDS011;51070;52.236;-0.892;2023-04-15T14:36:06;4.30;;;2.80;;
62927;SDS011;51070;52.236;-0.892;2023-04-15T14:38:33;5.30;;;3.10;;
62927;SDS011;51070;52.236;-0.892;2023-04-15T14:41:04;7.90;;;3.80;;
62927;SDS011;51070;52.236;-0.892;2023-04-15T14:43:30;5.80;;;3.30;;
62927;SDS011;51070;52.236;-0.892;2023-04-15T14:45:55;9.40;;;5.30;;
62927;SDS011;51070;52.236;-0.892;2023-04-15T14:48:21;5.40;;;4.00;;
62927;SDS011;51070;52.236;-0.892;2023-04-15T14:50:46;6.40;;;2.90;;